Feedback
Home > Rebate Center > Cooking > Range Hoods > Rebate Center: Not Approved for Outdoor Use Range Hoods > Approved for Outdoor Use: No
Expand Your Results
Remove Approved for Outdoor Use:
No
Refine Your Results

Technical Details

Energy Star Rated

Yes (2)
No (241)

Voltage

Filters

Are You a
Builder?

Contact us for
special pricing & volume discounts
Get Quote

Rebate Center: Not Approved for Outdoor Use Range Hoods

Sort:
Displaying 81 - 100 of 253 Products
20 40 50 products per page
1 2 3 4 5 6 7 8

Thermador Masterpiece Series VTN600F

600 CFM Centrifugal Blower

VTN600F 01/01/2016 - 12/31/2016 Save Up To $7,646 Instantly Download

Prizer Hoods Crescent Series CRESI

Island Chimney Range Hood with Optional Blowers, 3-Speed Fan Control, High-Heat Sensor, Halogen Lights, Handcrafted 16 Gauge Material and Baffle Filters

CRESI36SS 36" Width, Brushed Stainless Steel 01/01/2016 - 12/31/2016 Save $500 Download
CRESI42SS 42" Width, Brushed Stainless Steel 01/01/2016 - 12/31/2016 Save $500 Download
CRESI48SS 48" Width, Brushed Stainless Steel 01/01/2016 - 12/31/2016 Save $500 Download
CRESI54SS 54" Width, Brushed Stainless Steel 01/01/2016 - 12/31/2016 Save $500 Download
CRESI60SS 60" Width, Brushed Stainless Steel 01/01/2016 - 12/31/2016 Save $500 Download

BlueStar Manhattan Series BSMNHTTNISS

Island Hood with 3-Speed Blower Options, 750 Color Options, Hidden Controls, Dishwasher Safe Baffle Filters, Halogen Lamps and Top Discharge

BSMANHI24SS 24" Width 01/01/2016 - 12/31/2016 Save $500 Download
BSMANHI30SS 30" Width 01/01/2016 - 12/31/2016 Save $500 Download
BSMANHI36SS 36" Width 01/01/2016 - 12/31/2016 Save $500 Download
BSMANHI42SS 42" Width 01/01/2016 - 12/31/2016 Save $500 Download
BSMANHI48SS 48" Width 01/01/2016 - 12/31/2016 Save $500 Download
BSMANHI54SS 54" Width 01/01/2016 - 12/31/2016 Save $500 Download
BSMANHI60SS 60" Width 01/01/2016 - 12/31/2016 Save $500 Download
BSMANHI66SS 66" Width 01/01/2016 - 12/31/2016 Save $500 Download

BlueStar Manhattan Series BSMNHTTNBC

Brushed Copper Wall Mount Hood with 3-Speed Blower Options, Hidden Controls, Baffle Filters, Halogen Lamps and Top Discharge

BSMANH24BC 24" Width 01/01/2016 - 12/31/2016 Save $500 Download
BSMANH30BC 30" Width 01/01/2016 - 12/31/2016 Save $500 Download
BSMANH36BC 36" Width 01/01/2016 - 12/31/2016 Save $500 Download
BSMANH42BC 42" Width 01/01/2016 - 12/31/2016 Save $500 Download
BSMANH48BC 48" Width 01/01/2016 - 12/31/2016 Save $500 Download
BSMANH54BC 54" Width 01/01/2016 - 12/31/2016 Save $500 Download
BSMANH60BC 60" Width 01/01/2016 - 12/31/2016 Save $500 Download
BSMANH66BC 66" Width 01/01/2016 - 12/31/2016 Save $500 Download

Monogram ZV1050SFSS

42 Inch Island Chimney Range Hood with 1,080 CFM Internal Dual Blowers, 4-Speed Fan, 6-Level Halogen Lamps, Electronic Touch Controls and Utensil Rod

ZV1050SFSS Stainless Steel 01/01/2016 - 12/31/2016 Save Up To $3,798 Download

Wolf DD30

30 Inch Downdraft Ventilation System with 3-Speed Blower Control, Automatic Delay-Off, Filter Clean Timer, Aluminum Mesh Filters and Downdraft Control Module Kit

DD30 Stainless Steel 07/01/2016 - 03/31/2017 Receive a $1,000 Rebate or Free Wolf Gourmet Products Download

Thermador Masterpiece Series HMWB

Canopy Wall Mount Range Hood with 600 CFM Internal Blower, Halogen Lights, 4-Speed Touch Controls and 7 Segment Electronic Display

HMWB30FS 30-Inch 01/01/2016 - 12/31/2016 Save Up To $7,646 Instantly Download
HMWB36FS 36-Inch 01/01/2016 - 12/31/2016 Save Up To $7,646 Instantly Download

BlueStar Laramie Series BSLARAMIEIBC

Brushed Copper Island Hood with 3-Speed Blower Options, Hidden Controls, Baffle Filters and Halogen Lamps

BSLARAI30BC 30" Width 01/01/2016 - 12/31/2016 Save $500 Download
BSLARAI36BC 36" Width 01/01/2016 - 12/31/2016 Save $500 Download
BSLARAI42BC 42" Width 01/01/2016 - 12/31/2016 Save $500 Download
BSLARAI48BC 48" Width 01/01/2016 - 12/31/2016 Save $500 Download
BSLARAI54BC 54" Width 01/01/2016 - 12/31/2016 Save $500 Download
BSLARAI60BC 60" Width 01/01/2016 - 12/31/2016 Save $500 Download
BSLARAI66BC 66" Width 01/01/2016 - 12/31/2016 Save $500 Download

Viking Professional Series VWH53048

30 Inch Pro-Style Wall Mount Range Hood with Optional Blowers, Heat Sensor, Heat Lamps, LED Lights, Commercial-Type Baffle Filters, Backlit Knobs and 18 Inch Height

VWH530481SS Stainless Steel 09/01/2016 - 02/28/2017 Instant Savings of up to $1,579 Download
VWH53048AR Apple Red 09/01/2016 - 02/28/2017 Instant Savings of up to $1,579 Download
VWH53048BK Black 09/01/2016 - 02/28/2017 Instant Savings of up to $1,579 Download
VWH53048BU Burgundy 09/01/2016 - 02/28/2017 Instant Savings of up to $1,579 Download
VWH53048CB Cobalt Blue 09/01/2016 - 02/28/2017 Instant Savings of up to $1,579 Download
VWH53048GG Graphite Gray 09/01/2016 - 02/28/2017 Instant Savings of up to $1,579 Download
VWH53048WH White 09/01/2016 - 02/28/2017 Instant Savings of up to $1,579 Download

Prizer Hoods MLSS

Wall Mount Custom Hood Insert with Optional Blowers, 3-Speed Fan Control, High-Heat Sensor, Halogen Lights, Handcrafted 20 Gauge Material and Baffle Filters

MLSS28SS3 28" Width, 300 CFM Internal Blower 01/01/2016 - 12/31/2016 Save $500 Download
MLSS34SS 34" Width 01/01/2016 - 12/31/2016 Save $500 Download
MLSS40SS 40" Width 01/01/2016 - 12/31/2016 Save $500 Download
MLSS28SS6 28" Width, 600 CFM Internal Blower 01/01/2016 - 12/31/2016 Save $500 Download
MLSS46SS 46" Width 01/01/2016 - 12/31/2016 Save $500 Download
MLSS52SS 52" Width 01/01/2016 - 12/31/2016 Save $500 Download
MLSS58SS 58" Width 01/01/2016 - 12/31/2016 Save $500 Download
MLSS64SS 64" Width 01/01/2016 - 12/31/2016 Save $500 Download
MLSS70SS 70" Width 01/01/2016 - 12/31/2016 Save $500 Download

BlueStar Laredo Series BSLAREDOSS

Wall Mount Hood with 3-Speed Blower Options, 750 Color Options, Hidden Controls, Dishwasher Safe Baffle Filters, Halogen Lamps and Reversible Top/Rear Exhaust

BSLARE30SS 30" Width 01/01/2016 - 12/31/2016 Save $500 Download
BSLARE36SS 36" Width 01/01/2016 - 12/31/2016 Save $500 Download
BSLARE42SS 42" Width 01/01/2016 - 12/31/2016 Save $500 Download
BSLARE48SS 48" Width 01/01/2016 - 12/31/2016 Save $500 Download
BSLARE54SS 54" Width 01/01/2016 - 12/31/2016 Save $500 Download
BSLARE60SS 60" Width 01/01/2016 - 12/31/2016 Save $500 Download
BSLARE66SS 66" Width 01/01/2016 - 12/31/2016 Save $500 Download

BlueStar Laredo Series BSLAREDOISS

Island Hood with 3-Speed Blower Options, 750 Color Options, Hidden Controls, Dishwasher Safe Baffle Filters and Halogen Lamps

BSLAREI30SS 30" Width 01/01/2016 - 12/31/2016 Save $500 Download
BSLAREI36SS 36" Width 01/01/2016 - 12/31/2016 Save $500 Download
BSLAREI42SS 42" Width 01/01/2016 - 12/31/2016 Save $500 Download
BSLAREI48SS 48" Width 01/01/2016 - 12/31/2016 Save $500 Download
BSLAREI54SS 54" Width 01/01/2016 - 12/31/2016 Save $500 Download
BSLAREI60SS 60" Width 01/01/2016 - 12/31/2016 Save $500 Download
BSLAREI66SS 66" Width 01/01/2016 - 12/31/2016 Save $500 Download

BlueStar Manhattan Series BSMNHTTNIBB

Brushed Brass Island Hood with 3-Speed Blower Options, Hidden Controls, Baffle Filters, Halogen Lamps and Top Discharge

BSMANHI24BB 24" Width 01/01/2016 - 12/31/2016 Save $500 Download
BSMANHI30BB 30" Width 01/01/2016 - 12/31/2016 Save $500 Download
BSMANHI36BB 36" Width 01/01/2016 - 12/31/2016 Save $500 Download
BSMANHI42BB 42" Width 01/01/2016 - 12/31/2016 Save $500 Download
BSMANHI48BB 48" Width 01/01/2016 - 12/31/2016 Save $500 Download
BSMANHI54BB 54" Width 01/01/2016 - 12/31/2016 Save $500 Download
BSMANHI60BB 60" Width 01/01/2016 - 12/31/2016 Save $500 Download
BSMANHI66BB 66" Width 01/01/2016 - 12/31/2016 Save $500 Download

Prizer Hoods Silverado Series SILV

Wall Mount Chimney Range Hood with Optional Blowers, 3-Speed Fan Control, High-Heat Sensor, Halogen Lights, Handcrafted 16 Gauge Material and Baffle Filters

SILV30SS 30" Width, Brushed Stainless Steel 01/01/2016 - 12/31/2016 Save $500 Download
SILV36SS 36" Width, Brushed Stainless Steel 01/01/2016 - 12/31/2016 Save $500 Download
SILV42SS 42" Width, Brushed Stainless Steel 01/01/2016 - 12/31/2016 Save $500 Download
SILV48SS 48" Width, Brushed Stainless Steel 01/01/2016 - 12/31/2016 Save $500 Download
SILV54SS 54" Width, Brushed Stainless Steel 01/01/2016 - 12/31/2016 Save $500 Download
SILV60SS 60" Width, Brushed Stainless Steel 01/01/2016 - 12/31/2016 Save $500 Download

Monogram ZVSSFSS

Professional Straight-Sided Wall Mount Canopy Range Hood with Internal Blower, 4-Speed Fan, Infrared Warming Lamps and Grease Trays

ZV30SSFSS 30 in. Width with 640 CFM 01/01/2016 - 12/31/2016 Save Up To $3,798 Download
ZV36SSFSS 36 in. Width with 640 CFM 01/01/2016 - 12/31/2016 Save Up To $3,798 Download
ZV48SSFSS 48 in. Width with 1200 CFM 01/01/2016 - 12/31/2016 Save Up To $3,798 Download

BlueStar Hampton Series BSHAMPTONBB

Brushed Brass Wall Mount Hood with 3-Speed Blower Options, Hidden Controls, Baffle Filters, Halogen Lamps and Reversible Top/Rear Exhaust

BSHAMP30BB 30" Width 01/01/2016 - 12/31/2016 Save $500 Download
BSHAMP36BB 36" Width 01/01/2016 - 12/31/2016 Save $500 Download
BSHAMP42BB 42" Width 01/01/2016 - 12/31/2016 Save $500 Download
BSHAMP48BB 48" Width 01/01/2016 - 12/31/2016 Save $500 Download
BSHAMP54BB 54" Width 01/01/2016 - 12/31/2016 Save $500 Download
BSHAMP60BB 60" Width 01/01/2016 - 12/31/2016 Save $500 Download
BSHAMP66BB 66" Width 01/01/2016 - 12/31/2016 Save $500 Download

BlueStar Insert Liner Series BSPROLINERSS

Stainless Steel Insert Liner with 3-Speed Blower Options, Commercial Stainless Steel Baffle Filters, EZ Install Trim Kit, High Heat Sensor and Variable Light Control

BSPMLSS28SS3 28" Width with 300 CFM Blower 01/01/2016 - 12/31/2016 Save $500 Download
BSPMLSS34SS 34" Width 01/01/2016 - 12/31/2016 Save $500 Download
BSPMLSS40SS 40" Width 01/01/2016 - 12/31/2016 Save $500 Download
BSPMLSS28SS6 28" Width with 600 CFM Blower 01/01/2016 - 12/31/2016 Save $500 Download
BSPMLSS46SS 46" Width 01/01/2016 - 12/31/2016 Save $500 Download
BSPMLSS52SS 52" Width 01/01/2016 - 12/31/2016 Save $500 Download
BSPMLSS58SS 58" Width 01/01/2016 - 12/31/2016 Save $500 Download
BSPMLSS64SS 64" Width 01/01/2016 - 12/31/2016 Save $500 Download
BSPMLSS70SS 70" Width 01/01/2016 - 12/31/2016 Save $500 Download

Tecnogas Superiore Next Series HN481BSS

48 Inch Wall Mount Hood with 600 CFM Blower, 4 Speed Settings, 4 Baffle Filters, 2 Halogen Lights, 30 dBA Noise Level, Electronic Button Controls and Timer

HN481BSS Stainless Steel 10/01/2016 - 03/31/2017 Save up to $800 Download

Wolf VI45G

45 Inch Island Chimney Range Hood with Optional Blowers, 3-Speed + Boost, Delay-Off, Filter Clean Indicator, Mesh Filters, Front-Mounted Controls and Glass Edge

VI45G Stainless Steel 07/01/2016 - 03/31/2017 Receive a $1,000 Rebate or Free Wolf Gourmet Products Download

BlueStar Incline Series BSINCLINEBC

Brushed Copper Wall Mount Hood with 3-Speed Blower Options, Hidden Controls, Baffle Filters, Halogen Lamps and Reversible Top/Rear Exhaust

BSINCL30BC 30" Width 01/01/2016 - 12/31/2016 Save $500 Download
BSINCL36BC 36" Width 01/01/2016 - 12/31/2016 Save $500 Download
BSINCL42BC 42" Width 01/01/2016 - 12/31/2016 Save $500 Download
BSINCL48BC 48" Width 01/01/2016 - 12/31/2016 Save $500 Download
BSINCL54BC 54" Width 01/01/2016 - 12/31/2016 Save $500 Download
BSINCL60BC 60" Width 01/01/2016 - 12/31/2016 Save $500 Download
BSINCL66BC 66" Width 01/01/2016 - 12/31/2016 Save $500 Download
Sort:
Displaying 81 - 100 of 253 Products
20 40 50 products per page
1 2 3 4 5 6 7 8